sensor_id;sensor_type;location;lat;lon;timestamp;P1;durP1;ratioP1;P2;durP2;ratioP2
2872;SDS011;1444;49.166;7.312;2023-06-26T00:01:30;10.40;;;9.23;;
2872;SDS011;1444;49.166;7.312;2023-06-26T00:03:57;24.50;;;18.33;;
2872;SDS011;1444;49.166;7.312;2023-06-26T00:06:24;14.50;;;11.87;;
2872;SDS011;1444;49.166;7.312;2023-06-26T00:08:51;16.90;;;11.43;;
2872;SDS011;1444;49.166;7.312;2023-06-26T00:11:18;12.90;;;9.97;;
2872;SDS011;1444;49.166;7.312;2023-06-26T00:13:47;11.00;;;8.90;;
2872;SDS011;1444;49.166;7.312;2023-06-26T00:16:14;16.57;;;12.37;;
2872;SDS011;1444;49.166;7.312;2023-06-26T00:18:41;15.47;;;11.40;;
2872;SDS011;1444;49.166;7.312;2023-06-26T00:21:07;14.90;;;11.73;;
2872;SDS011;1444;49.166;7.312;2023-06-26T00:23:34;12.30;;;9.70;;
2872;SDS011;1444;49.166;7.312;2023-06-26T00:26:02;17.77;;;13.40;;
2872;SDS011;1444;49.166;7.312;2023-06-26T00:28:30;12.30;;;9.77;;
2872;SDS011;1444;49.166;7.312;2023-06-26T00:30:58;18.00;;;11.80;;
2872;SDS011;1444;49.166;7.312;2023-06-26T00:33:25;11.23;;;8.67;;
2872;SDS011;1444;49.166;7.312;2023-06-26T00:35:51;14.53;;;10.40;;
2872;SDS011;1444;49.166;7.312;2023-06-26T00:38:18;12.87;;;9.20;;
2872;SDS011;1444;49.166;7.312;2023-06-26T00:40:45;11.53;;;9.40;;
2872;SDS011;1444;49.166;7.312;2023-06-26T00:43:11;10.30;;;9.23;;
2872;SDS011;1444;49.166;7.312;2023-06-26T00:45:38;10.67;;;9.60;;
2872;SDS011;1444;49.166;7.312;2023-06-26T00:48:06;15.17;;;11.90;;
2872;SDS011;1444;49.166;7.312;2023-06-26T00:50:33;12.60;;;9.93;;
2872;SDS011;1444;49.166;7.312;2023-06-26T00:53:00;13.30;;;11.33;;
2872;SDS011;1444;49.166;7.312;2023-06-26T00:55:26;11.90;;;9.73;;
2872;SDS011;1444;49.166;7.312;2023-06-26T00:57:53;12.80;;;11.13;;
2872;SDS011;1444;49.166;7.312;2023-06-26T01:00:21;12.67;;;9.63;;
2872;SDS011;1444;49.166;7.312;2023-06-26T01:02:48;14.00;;;10.37;;
2872;SDS011;1444;49.166;7.312;2023-06-26T01:05:16;10.60;;;9.50;;
2872;SDS011;1444;49.166;7.312;2023-06-26T01:07:45;12.10;;;10.10;;
2872;SDS011;1444;49.166;7.312;2023-06-26T01:10:13;11.20;;;9.27;;
2872;SDS011;1444;49.166;7.312;2023-06-26T01:12:40;11.00;;;9.67;;
2872;SDS011;1444;49.166;7.312;2023-06-26T01:15:08;12.60;;;11.30;;
2872;SDS011;1444;49.166;7.312;2023-06-26T01:17:36;10.60;;;9.27;;
2872;SDS011;1444;49.166;7.312;2023-06-26T01:20:05;12.43;;;10.20;;
2872;SDS011;1444;49.166;7.312;2023-06-26T01:22:37;12.33;;;10.40;;
2872;SDS011;1444;49.166;7.312;2023-06-26T01:25:12;11.23;;;9.73;;
2872;SDS011;1444;49.166;7.312;2023-06-26T01:27:45;19.83;;;9.60;;
2872;SDS011;1444;49.166;7.312;2023-06-26T01:30:14;13.60;;;10.70;;
2872;SDS011;1444;49.166;7.312;2023-06-26T01:32:43;17.10;;;10.00;;
2872;SDS011;1444;49.166;7.312;2023-06-26T01:35:10;10.70;;;9.60;;
2872;SDS011;1444;49.166;7.312;2023-06-26T01:37:37;12.33;;;10.30;;
2872;SDS011;1444;49.166;7.312;2023-06-26T01:40:04;15.77;;;11.10;;
2872;SDS011;1444;49.166;7.312;2023-06-26T01:42:32;15.03;;;8.47;;
2872;SDS011;1444;49.166;7.312;2023-06-26T01:45:01;13.47;;;11.00;;
2872;SDS011;1444;49.166;7.312;2023-06-26T01:47:32;12.03;;;9.60;;
2872;SDS011;1444;49.166;7.312;2023-06-26T01:50:02;24.10;;;11.60;;
2872;SDS011;1444;49.166;7.312;2023-06-26T01:52:35;12.97;;;11.00;;
2872;SDS011;1444;49.166;7.312;2023-06-26T01:55:08;14.20;;;12.13;;
2872;SDS011;1444;49.166;7.312;2023-06-26T01:57:41;13.57;;;11.20;;
2872;SDS011;1444;49.166;7.312;2023-06-26T02:00:11;12.27;;;10.97;;
2872;SDS011;1444;49.166;7.312;2023-06-26T02:02:40;14.10;;;10.93;;
2872;SDS011;1444;49.166;7.312;2023-06-26T02:05:07;20.17;;;12.50;;
2872;SDS011;1444;49.166;7.312;2023-06-26T02:07:34;14.67;;;10.20;;
2872;SDS011;1444;49.166;7.312;2023-06-26T02:10:01;12.93;;;11.03;;
2872;SDS011;1444;49.166;7.312;2023-06-26T02:12:28;17.43;;;10.90;;
2872;SDS011;1444;49.166;7.312;2023-06-26T02:14:55;11.93;;;10.50;;
2872;SDS011;1444;49.166;7.312;2023-06-26T02:17:23;12.27;;;9.00;;
2872;SDS011;1444;49.166;7.312;2023-06-26T02:19:49;13.43;;;9.63;;
2872;SDS011;1444;49.166;7.312;2023-06-26T02:22:16;16.10;;;11.00;;
2872;SDS011;1444;49.166;7.312;2023-06-26T02:24:43;14.80;;;10.60;;
2872;SDS011;1444;49.166;7.312;2023-06-26T02:27:10;19.73;;;11.30;;
2872;SDS011;1444;49.166;7.312;2023-06-26T02:29:38;12.43;;;10.23;;
2872;SDS011;1444;49.166;7.312;2023-06-26T02:32:05;16.23;;;10.67;;
2872;SDS011;1444;49.166;7.312;2023-06-26T02:34:33;10.90;;;8.43;;
2872;SDS011;1444;49.166;7.312;2023-06-26T02:37:00;11.33;;;9.53;;
2872;SDS011;1444;49.166;7.312;2023-06-26T02:39:27;10.67;;;8.80;;
2872;SDS011;1444;49.166;7.312;2023-06-26T02:41:54;11.67;;;9.90;;
2872;SDS011;1444;49.166;7.312;2023-06-26T02:44:21;12.23;;;9.00;;
2872;SDS011;1444;49.166;7.312;2023-06-26T02:46:47;13.13;;;10.00;;
2872;SDS011;1444;49.166;7.312;2023-06-26T02:49:14;12.57;;;10.70;;
2872;SDS011;1444;49.166;7.312;2023-06-26T02:51:42;17.77;;;10.50;;
2872;SDS011;1444;49.166;7.312;2023-06-26T02:54:09;18.47;;;12.33;;
2872;SDS011;1444;49.166;7.312;2023-06-26T02:56:35;10.10;;;9.00;;
2872;SDS011;1444;49.166;7.312;2023-06-26T02:59:02;15.43;;;12.13;;
2872;SDS011;1444;49.166;7.312;2023-06-26T03:01:29;12.97;;;8.53;;
2872;SDS011;1444;49.166;7.312;2023-06-26T03:03:55;15.90;;;9.20;;
2872;SDS011;1444;49.166;7.312;2023-06-26T03:06:22;16.33;;;11.07;;
2872;SDS011;1444;49.166;7.312;2023-06-26T03:08:51;17.33;;;10.87;;
2872;SDS011;1444;49.166;7.312;2023-06-26T03:11:19;33.13;;;12.37;;
2872;SDS011;1444;49.166;7.312;2023-06-26T03:13:46;27.20;;;13.00;;
2872;SDS011;1444;49.166;7.312;2023-06-26T03:16:12;24.67;;;11.87;;
2872;SDS011;1444;49.166;7.312;2023-06-26T03:18:39;19.93;;;10.60;;
2872;SDS011;1444;49.166;7.312;2023-06-26T03:21:06;23.70;;;14.20;;
2872;SDS011;1444;49.166;7.312;2023-06-26T03:23:35;27.70;;;13.50;;
2872;SDS011;1444;49.166;7.312;2023-06-26T03:26:03;16.80;;;11.57;;
2872;SDS011;1444;49.166;7.312;2023-06-26T03:28:29;19.77;;;10.47;;
2872;SDS011;1444;49.166;7.312;2023-06-26T03:30:57;20.77;;;12.87;;
2872;SDS011;1444;49.166;7.312;2023-06-26T03:33:23;19.00;;;10.73;;
2872;SDS011;1444;49.166;7.312;2023-06-26T03:35:50;22.00;;;12.33;;
2872;SDS011;1444;49.166;7.312;2023-06-26T03:38:17;25.90;;;13.03;;
2872;SDS011;1444;49.166;7.312;2023-06-26T03:40:45;28.80;;;13.27;;
2872;SDS011;1444;49.166;7.312;2023-06-26T03:43:12;34.43;;;14.53;;
2872;SDS011;1444;49.166;7.312;2023-06-26T03:45:39;28.77;;;13.17;;
2872;SDS011;1444;49.166;7.312;2023-06-26T03:48:06;18.57;;;11.00;;
2872;SDS011;1444;49.166;7.312;2023-06-26T03:50:33;16.57;;;9.80;;
2872;SDS011;1444;49.166;7.312;2023-06-26T03:52:59;20.27;;;11.20;;
2872;SDS011;1444;49.166;7.312;2023-06-26T03:55:26;28.03;;;13.40;;
2872;SDS011;1444;49.166;7.312;2023-06-26T03:57:53;34.27;;;14.00;;
2872;SDS011;1444;49.166;7.312;2023-06-26T04:00:21;23.13;;;12.57;;
2872;SDS011;1444;49.166;7.312;2023-06-26T04:02:48;25.37;;;12.70;;
2872;SDS011;1444;49.166;7.312;2023-06-26T04:05:16;33.47;;;13.80;;
2872;SDS011;1444;49.166;7.312;2023-06-26T04:07:43;34.10;;;15.07;;
2872;SDS011;1444;49.166;7.312;2023-06-26T04:10:09;53.97;;;16.83;;
2872;SDS011;1444;49.166;7.312;2023-06-26T04:12:36;19.17;;;11.20;;
2872;SDS011;1444;49.166;7.312;2023-06-26T04:15:03;31.80;;;14.73;;
2872;SDS011;1444;49.166;7.312;2023-06-26T04:17:32;47.60;;;13.63;;
2872;SDS011;1444;49.166;7.312;2023-06-26T04:19:58;48.73;;;18.63;;
2872;SDS011;1444;49.166;7.312;2023-06-26T04:22:25;27.43;;;13.00;;
2872;SDS011;1444;49.166;7.312;2023-06-26T04:24:52;38.20;;;13.87;;
2872;SDS011;1444;49.166;7.312;2023-06-26T04:27:18;41.00;;;15.87;;
2872;SDS011;1444;49.166;7.312;2023-06-26T04:29:45;37.07;;;14.80;;
2872;SDS011;1444;49.166;7.312;2023-06-26T04:32:12;26.57;;;13.10;;
2872;SDS011;1444;49.166;7.312;2023-06-26T04:34:40;19.23;;;11.10;;
2872;SDS011;1444;49.166;7.312;2023-06-26T04:37:08;44.03;;;16.47;;
2872;SDS011;1444;49.166;7.312;2023-06-26T04:39:35;32.50;;;14.40;;
2872;SDS011;1444;49.166;7.312;2023-06-26T04:42:03;37.90;;;16.27;;
2872;SDS011;1444;49.166;7.312;2023-06-26T04:44:31;24.50;;;13.30;;
2872;SDS011;1444;49.166;7.312;2023-06-26T04:46:58;44.90;;;17.17;;
2872;SDS011;1444;49.166;7.312;2023-06-26T04:49:25;28.83;;;13.13;;
2872;SDS011;1444;49.166;7.312;2023-06-26T04:51:54;36.67;;;15.73;;
2872;SDS011;1444;49.166;7.312;2023-06-26T04:54:20;36.77;;;12.70;;
2872;SDS011;1444;49.166;7.312;2023-06-26T04:56:47;46.53;;;16.87;;
2872;SDS011;1444;49.166;7.312;2023-06-26T04:59:14;34.73;;;14.83;;
2872;SDS011;1444;49.166;7.312;2023-06-26T05:01:40;25.03;;;11.97;;
2872;SDS011;1444;49.166;7.312;2023-06-26T05:04:09;40.03;;;16.37;;
2872;SDS011;1444;49.166;7.312;2023-06-26T05:06:36;26.80;;;12.40;;
2872;SDS011;1444;49.166;7.312;2023-06-26T05:09:04;22.20;;;11.40;;
2872;SDS011;1444;49.166;7.312;2023-06-26T05:11:31;29.77;;;13.50;;
2872;SDS011;1444;49.166;7.312;2023-06-26T05:13:57;54.63;;;18.57;;
2872;SDS011;1444;49.166;7.312;2023-06-26T05:16:24;30.60;;;13.93;;
2872;SDS011;1444;49.166;7.312;2023-06-26T05:18:51;41.93;;;17.17;;
2872;SDS011;1444;49.166;7.312;2023-06-26T05:21:19;31.93;;;14.03;;
2872;SDS011;1444;49.166;7.312;2023-06-26T05:23:46;23.77;;;13.07;;
2872;SDS011;1444;49.166;7.312;2023-06-26T05:26:15;32.43;;;15.27;;
2872;SDS011;1444;49.166;7.312;2023-06-26T05:28:42;20.87;;;12.87;;
2872;SDS011;1444;49.166;7.312;2023-06-26T05:31:13;28.77;;;14.37;;
2872;SDS011;1444;49.166;7.312;2023-06-26T05:33:40;22.23;;;11.73;;
2872;SDS011;1444;49.166;7.312;2023-06-26T05:36:13;37.20;;;14.30;;
2872;SDS011;1444;49.166;7.312;2023-06-26T05:38:42;24.03;;;14.00;;
2872;SDS011;1444;49.166;7.312;2023-06-26T05:41:09;31.00;;;15.00;;
2872;SDS011;1444;49.166;7.312;2023-06-26T05:43:38;37.00;;;13.00;;
2872;SDS011;1444;49.166;7.312;2023-06-26T05:46:05;42.30;;;18.40;;
2872;SDS011;1444;49.166;7.312;2023-06-26T05:48:31;24.23;;;13.93;;
2872;SDS011;1444;49.166;7.312;2023-06-26T05:50:58;44.57;;;17.03;;
2872;SDS011;1444;49.166;7.312;2023-06-26T05:53:26;25.03;;;13.70;;
2872;SDS011;1444;49.166;7.312;2023-06-26T05:55:55;29.17;;;15.20;;
2872;SDS011;1444;49.166;7.312;2023-06-26T05:58:22;20.23;;;11.20;;
2872;SDS011;1444;49.166;7.312;2023-06-26T06:00:53;32.63;;;16.17;;
2872;SDS011;1444;49.166;7.312;2023-06-26T06:03:19;24.33;;;13.07;;
2872;SDS011;1444;49.166;7.312;2023-06-26T06:05:46;22.60;;;11.90;;
2872;SDS011;1444;49.166;7.312;2023-06-26T06:08:13;25.97;;;14.23;;
2872;SDS011;1444;49.166;7.312;2023-06-26T06:10:40;27.07;;;13.40;;
2872;SDS011;1444;49.166;7.312;2023-06-26T06:13:06;25.40;;;13.37;;
2872;SDS011;1444;49.166;7.312;2023-06-26T06:15:33;26.57;;;12.83;;
2872;SDS011;1444;49.166;7.312;2023-06-26T06:18:01;46.63;;;18.33;;
2872;SDS011;1444;49.166;7.312;2023-06-26T06:20:28;27.73;;;13.23;;
2872;SDS011;1444;49.166;7.312;2023-06-26T06:22:54;31.07;;;15.50;;
2872;SDS011;1444;49.166;7.312;2023-06-26T06:25:21;21.60;;;13.30;;
2872;SDS011;1444;49.166;7.312;2023-06-26T06:27:48;27.50;;;13.77;;
2872;SDS011;1444;49.166;7.312;2023-06-26T06:30:14;25.00;;;14.33;;
2872;SDS011;1444;49.166;7.312;2023-06-26T06:32:41;14.47;;;10.93;;
2872;SDS011;1444;49.166;7.312;2023-06-26T06:35:09;27.63;;;15.50;;
2872;SDS011;1444;49.166;7.312;2023-06-26T06:37:36;25.17;;;13.93;;
2872;SDS011;1444;49.166;7.312;2023-06-26T06:40:03;27.53;;;15.17;;
2872;SDS011;1444;49.166;7.312;2023-06-26T06:42:31;22.80;;;13.37;;
2872;SDS011;1444;49.166;7.312;2023-06-26T06:44:58;41.07;;;21.27;;
2872;SDS011;1444;49.166;7.312;2023-06-26T06:47:26;27.00;;;16.10;;
2872;SDS011;1444;49.166;7.312;2023-06-26T06:49:53;24.40;;;13.00;;
2872;SDS011;1444;49.166;7.312;2023-06-26T06:52:21;16.50;;;11.87;;
2872;SDS011;1444;49.166;7.312;2023-06-26T06:54:51;28.77;;;16.50;;
2872;SDS011;1444;49.166;7.312;2023-06-26T06:57:18;26.90;;;14.50;;
2872;SDS011;1444;49.166;7.312;2023-06-26T06:59:45;20.23;;;13.73;;
2872;SDS011;1444;49.166;7.312;2023-06-26T07:02:13;26.80;;;14.50;;
2872;SDS011;1444;49.166;7.312;2023-06-26T07:04:40;22.93;;;12.90;;
2872;SDS011;1444;49.166;7.312;2023-06-26T07:07:07;35.33;;;18.30;;
2872;SDS011;1444;49.166;7.312;2023-06-26T07:09:35;17.93;;;12.47;;
2872;SDS011;1444;49.166;7.312;2023-06-26T07:12:02;30.73;;;17.23;;
2872;SDS011;1444;49.166;7.312;2023-06-26T07:14:29;18.63;;;12.40;;
2872;SDS011;1444;49.166;7.312;2023-06-26T07:16:55;29.60;;;15.90;;
2872;SDS011;1444;49.166;7.312;2023-06-26T07:19:22;24.60;;;14.37;;
2872;SDS011;1444;49.166;7.312;2023-06-26T07:21:49;29.57;;;15.87;;
2872;SDS011;1444;49.166;7.312;2023-06-26T07:24:15;27.53;;;14.90;;
2872;SDS011;1444;49.166;7.312;2023-06-26T07:26:44;15.47;;;12.00;;
2872;SDS011;1444;49.166;7.312;2023-06-26T07:29:10;22.10;;;13.97;;
2872;SDS011;1444;49.166;7.312;2023-06-26T07:31:37;20.30;;;13.30;;
2872;SDS011;1444;49.166;7.312;2023-06-26T07:34:03;28.00;;;17.63;;
2872;SDS011;1444;49.166;7.312;2023-06-26T07:36:30;21.00;;;13.40;;
2872;SDS011;1444;49.166;7.312;2023-06-26T07:38:57;32.07;;;17.10;;
2872;SDS011;1444;49.166;7.312;2023-06-26T07:41:28;22.00;;;13.60;;
2872;SDS011;1444;49.166;7.312;2023-06-26T07:43:57;30.37;;;15.27;;
2872;SDS011;1444;49.166;7.312;2023-06-26T07:46:24;31.80;;;12.83;;
2872;SDS011;1444;49.166;7.312;2023-06-26T07:48:51;29.37;;;14.77;;
2872;SDS011;1444;49.166;7.312;2023-06-26T07:51:18;18.47;;;11.63;;
2872;SDS011;1444;49.166;7.312;2023-06-26T07:53:45;17.43;;;12.83;;
2872;SDS011;1444;49.166;7.312;2023-06-26T07:56:12;20.80;;;12.70;;
2872;SDS011;1444;49.166;7.312;2023-06-26T07:58:38;25.90;;;13.87;;
2872;SDS011;1444;49.166;7.312;2023-06-26T08:01:06;24.63;;;15.00;;
2872;SDS011;1444;49.166;7.312;2023-06-26T08:03:33;19.60;;;12.90;;
2872;SDS011;1444;49.166;7.312;2023-06-26T08:06:00;39.37;;;17.63;;
2872;SDS011;1444;49.166;7.312;2023-06-26T08:08:26;20.40;;;11.50;;
2872;SDS011;1444;49.166;7.312;2023-06-26T08:10:53;24.13;;;14.33;;
2872;SDS011;1444;49.166;7.312;2023-06-26T08:13:20;20.90;;;12.77;;
2872;SDS011;1444;49.166;7.312;2023-06-26T08:15:46;17.83;;;10.37;;
2872;SDS011;1444;49.166;7.312;2023-06-26T08:18:15;17.73;;;10.30;;
2872;SDS011;1444;49.166;7.312;2023-06-26T08:20:41;16.57;;;10.23;;
2872;SDS011;1444;49.166;7.312;2023-06-26T08:23:08;19.40;;;9.90;;
2872;SDS011;1444;49.166;7.312;2023-06-26T08:25:35;16.27;;;10.63;;
2872;SDS011;1444;49.166;7.312;2023-06-26T08:28:01;28.50;;;14.63;;
2872;SDS011;1444;49.166;7.312;2023-06-26T08:30:28;21.87;;;10.90;;
2872;SDS011;1444;49.166;7.312;2023-06-26T08:32:55;26.47;;;12.13;;
2872;SDS011;1444;49.166;7.312;2023-06-26T08:35:23;31.80;;;10.77;;
2872;SDS011;1444;49.166;7.312;2023-06-26T08:37:50;16.27;;;8.97;;
2872;SDS011;1444;49.166;7.312;2023-06-26T08:40:19;18.83;;;9.20;;
2872;SDS011;1444;49.166;7.312;2023-06-26T08:42:47;12.63;;;7.97;;
2872;SDS011;1444;49.166;7.312;2023-06-26T08:45:17;26.50;;;10.70;;
2872;SDS011;1444;49.166;7.312;2023-06-26T08:47:47;16.53;;;9.70;;
2872;SDS011;1444;49.166;7.312;2023-06-26T08:50:15;13.80;;;7.97;;
2872;SDS011;1444;49.166;7.312;2023-06-26T08:52:49;23.27;;;9.00;;
2872;SDS011;1444;49.166;7.312;2023-06-26T08:55:22;12.80;;;7.37;;
2872;SDS011;1444;49.166;7.312;2023-06-26T08:57:52;26.97;;;8.57;;
2872;SDS011;1444;49.166;7.312;2023-06-26T09:00:19;14.40;;;7.23;;
2872;SDS011;1444;49.166;7.312;2023-06-26T09:02:46;14.00;;;7.50;;
2872;SDS011;1444;49.166;7.312;2023-06-26T09:05:13;19.37;;;7.53;;
2872;SDS011;1444;49.166;7.312;2023-06-26T09:07:40;16.90;;;7.50;;
2872;SDS011;1444;49.166;7.312;2023-06-26T09:10:08;29.37;;;11.03;;
2872;SDS011;1444;49.166;7.312;2023-06-26T09:12:36;12.00;;;6.23;;
2872;SDS011;1444;49.166;7.312;2023-06-26T09:15:03;26.00;;;10.97;;
2872;SDS011;1444;49.166;7.312;2023-06-26T09:17:33;19.97;;;6.83;;
2872;SDS011;1444;49.166;7.312;2023-06-26T09:20:00;15.10;;;7.30;;
2872;SDS011;1444;49.166;7.312;2023-06-26T09:22:27;19.20;;;8.40;;
2872;SDS011;1444;49.166;7.312;2023-06-26T09:24:55;23.83;;;10.27;;
2872;SDS011;1444;49.166;7.312;2023-06-26T09:27:23;20.73;;;6.20;;
2872;SDS011;1444;49.166;7.312;2023-06-26T09:29:49;11.60;;;6.37;;
2872;SDS011;1444;49.166;7.312;2023-06-26T09:32:16;13.70;;;6.83;;
2872;SDS011;1444;49.166;7.312;2023-06-26T09:34:43;12.13;;;6.60;;
2872;SDS011;1444;49.166;7.312;2023-06-26T09:37:11;21.07;;;9.43;;
2872;SDS011;1444;49.166;7.312;2023-06-26T09:39:38;7.80;;;5.50;;
2872;SDS011;1444;49.166;7.312;2023-06-26T09:42:05;9.97;;;5.53;;
2872;SDS011;1444;49.166;7.312;2023-06-26T09:44:37;11.77;;;7.47;;
2872;SDS011;1444;49.166;7.312;2023-06-26T09:47:10;20.03;;;8.70;;
2872;SDS011;1444;49.166;7.312;2023-06-26T09:49:36;8.97;;;5.77;;
2872;SDS011;1444;49.166;7.312;2023-06-26T09:52:07;18.90;;;9.63;;
2872;SDS011;1444;49.166;7.312;2023-06-26T09:54:34;32.47;;;7.90;;
2872;SDS011;1444;49.166;7.312;2023-06-26T09:57:07;30.83;;;13.93;;
2872;SDS011;1444;49.166;7.312;2023-06-26T09:59:34;18.47;;;7.20;;
2872;SDS011;1444;49.166;7.312;2023-06-26T10:02:03;24.80;;;10.17;;
2872;SDS011;1444;49.166;7.312;2023-06-26T10:04:30;16.23;;;8.40;;
2872;SDS011;1444;49.166;7.312;2023-06-26T10:06:58;29.40;;;12.03;;
2872;SDS011;1444;49.166;7.312;2023-06-26T10:09:27;14.83;;;7.90;;
2872;SDS011;1444;49.166;7.312;2023-06-26T10:11:55;23.70;;;10.67;;
2872;SDS011;1444;49.166;7.312;2023-06-26T10:14:25;16.53;;;7.70;;
2872;SDS011;1444;49.166;7.312;2023-06-26T10:16:55;18.03;;;8.37;;
2872;SDS011;1444;49.166;7.312;2023-06-26T10:19:25;16.87;;;9.20;;
2872;SDS011;1444;49.166;7.312;2023-06-26T10:21:53;18.10;;;7.30;;
2872;SDS011;1444;49.166;7.312;2023-06-26T10:24:22;14.57;;;7.70;;
2872;SDS011;1444;49.166;7.312;2023-06-26T10:26:49;18.50;;;9.77;;
2872;SDS011;1444;49.166;7.312;2023-06-26T10:29:18;16.33;;;8.03;;
2872;SDS011;1444;49.166;7.312;2023-06-26T10:31:49;10.47;;;5.60;;
2872;SDS011;1444;49.166;7.312;2023-06-26T10:34:20;18.83;;;8.77;;
2872;SDS011;1444;49.166;7.312;2023-06-26T10:36:47;13.73;;;6.73;;
2872;SDS011;1444;49.166;7.312;2023-06-26T10:39:24;20.37;;;9.90;;
2872;SDS011;1444;49.166;7.312;2023-06-26T10:41:51;20.10;;;9.30;;
2872;SDS011;1444;49.166;7.312;2023-06-26T10:44:21;14.60;;;8.17;;
2872;SDS011;1444;49.166;7.312;2023-06-26T10:46:48;12.57;;;7.17;;
2872;SDS011;1444;49.166;7.312;2023-06-26T10:49:17;19.77;;;8.67;;
2872;SDS011;1444;49.166;7.312;2023-06-26T10:51:46;9.03;;;5.93;;
2872;SDS011;1444;49.166;7.312;2023-06-26T10:54:14;15.33;;;8.23;;
2872;SDS011;1444;49.166;7.312;2023-06-26T10:56:42;13.97;;;7.07;;
2872;SDS011;1444;49.166;7.312;2023-06-26T10:59:11;30.33;;;11.30;;
2872;SDS011;1444;49.166;7.312;2023-06-26T11:01:41;11.33;;;7.37;;
2872;SDS011;1444;49.166;7.312;2023-06-26T11:04:08;30.77;;;13.53;;
2872;SDS011;1444;49.166;7.312;2023-06-26T11:06:37;17.97;;;9.60;;
2872;SDS011;1444;49.166;7.312;2023-06-26T11:09:08;21.30;;;11.37;;
2872;SDS011;1444;49.166;7.312;2023-06-26T11:11:58;16.53;;;8.63;;
2872;SDS011;1444;49.166;7.312;2023-06-26T11:14:30;13.63;;;7.83;;
2872;SDS011;1444;49.166;7.312;2023-06-26T11:16:58;35.87;;;14.83;;
2872;SDS011;1444;49.166;7.312;2023-06-26T11:19:25;17.30;;;8.50;;
2872;SDS011;1444;49.166;7.312;2023-06-26T11:21:58;20.57;;;12.07;;
2872;SDS011;1444;49.166;7.312;2023-06-26T11:24:27;18.97;;;10.47;;
2872;SDS011;1444;49.166;7.312;2023-06-26T11:26:59;14.20;;;8.50;;
2872;SDS011;1444;49.166;7.312;2023-06-26T11:29:27;33.90;;;14.50;;
2872;SDS011;1444;49.166;7.312;2023-06-26T11:31:58;22.43;;;11.40;;
2872;SDS011;1444;49.166;7.312;2023-06-26T11:34:28;21.30;;;8.33;;
2872;SDS011;1444;49.166;7.312;2023-06-26T11:36:56;20.60;;;10.30;;
2872;SDS011;1444;49.166;7.312;2023-06-26T11:39:26;17.67;;;9.10;;
2872;SDS011;1444;49.166;7.312;2023-06-26T11:41:53;21.27;;;9.33;;
2872;SDS011;1444;49.166;7.312;2023-06-26T11:44:19;17.53;;;7.77;;
2872;SDS011;1444;49.166;7.312;2023-06-26T11:46:47;16.13;;;8.30;;
2872;SDS011;1444;49.166;7.312;2023-06-26T11:49:19;17.77;;;9.07;;
2872;SDS011;1444;49.166;7.312;2023-06-26T11:51:48;10.30;;;6.07;;
2872;SDS011;1444;49.166;7.312;2023-06-26T11:54:16;16.03;;;7.00;;
2872;SDS011;1444;49.166;7.312;2023-06-26T11:56:56;8.80;;;5.27;;
2872;SDS011;1444;49.166;7.312;2023-06-26T11:59:32;19.97;;;8.10;;
2872;SDS011;1444;49.166;7.312;2023-06-26T12:02:00;21.90;;;10.43;;
2872;SDS011;1444;49.166;7.312;2023-06-26T12:04:31;9.13;;;5.93;;
2872;SDS011;1444;49.166;7.312;2023-06-26T12:06:59;18.30;;;8.70;;
2872;SDS011;1444;49.166;7.312;2023-06-26T12:09:30;15.30;;;6.67;;
2872;SDS011;1444;49.166;7.312;2023-06-26T12:11:59;20.43;;;10.27;;
2872;SDS011;1444;49.166;7.312;2023-06-26T12:14:26;10.47;;;6.13;;
2872;SDS011;1444;49.166;7.312;2023-06-26T12:16:54;15.23;;;7.87;;
2872;SDS011;1444;49.166;7.312;2023-06-26T12:19:24;14.77;;;7.00;;
2872;SDS011;1444;49.166;7.312;2023-06-26T12:21:52;12.23;;;6.87;;
2872;SDS011;1444;49.166;7.312;2023-06-26T12:24:21;10.00;;;5.80;;
2872;SDS011;1444;49.166;7.312;2023-06-26T12:26:51;15.90;;;4.23;;
2872;SDS011;1444;49.166;7.312;2023-06-26T12:29:21;9.60;;;5.80;;
2872;SDS011;1444;49.166;7.312;2023-06-26T12:31:51;6.77;;;4.10;;
2872;SDS011;1444;49.166;7.312;2023-06-26T12:34:19;11.87;;;4.87;;
2872;SDS011;1444;49.166;7.312;2023-06-26T12:36:47;5.97;;;3.87;;
2872;SDS011;1444;49.166;7.312;2023-06-26T12:39:15;12.57;;;6.00;;
2872;SDS011;1444;49.166;7.312;2023-06-26T12:41:49;5.23;;;2.57;;
2872;SDS011;1444;49.166;7.312;2023-06-26T12:44:20;6.93;;;3.57;;
2872;SDS011;1444;49.166;7.312;2023-06-26T12:46:49;7.73;;;2.57;;
2872;SDS011;1444;49.166;7.312;2023-06-26T12:49:20;5.57;;;3.00;;
2872;SDS011;1444;49.166;7.312;2023-06-26T12:51:56;5.70;;;2.70;;
2872;SDS011;1444;49.166;7.312;2023-06-26T12:54:23;8.10;;;3.83;;
2872;SDS011;1444;49.166;7.312;2023-06-26T12:56:49;16.13;;;6.90;;
2872;SDS011;1444;49.166;7.312;2023-06-26T12:59:18;11.40;;;5.57;;
2872;SDS011;1444;49.166;7.312;2023-06-26T13:01:44;5.77;;;3.30;;
2872;SDS011;1444;49.166;7.312;2023-06-26T13:04:11;8.60;;;4.03;;
2872;SDS011;1444;49.166;7.312;2023-06-26T13:06:38;2.50;;;2.20;;
2872;SDS011;1444;49.166;7.312;2023-06-26T13:09:05;11.20;;;3.57;;
2872;SDS011;1444;49.166;7.312;2023-06-26T13:11:32;9.53;;;5.73;;
2872;SDS011;1444;49.166;7.312;2023-06-26T13:14:00;15.43;;;5.93;;
2872;SDS011;1444;49.166;7.312;2023-06-26T13:16:28;17.23;;;5.30;;
2872;SDS011;1444;49.166;7.312;2023-06-26T13:18:57;31.40;;;9.73;;
2872;SDS011;1444;49.166;7.312;2023-06-26T13:21:24;19.73;;;4.83;;
2872;SDS011;1444;49.166;7.312;2023-06-26T13:23:51;15.57;;;6.20;;
2872;SDS011;1444;49.166;7.312;2023-06-26T13:26:18;14.80;;;6.10;;
2872;SDS011;1444;49.166;7.312;2023-06-26T13:28:46;11.13;;;3.27;;
2872;SDS011;1444;49.166;7.312;2023-06-26T13:31:13;7.70;;;3.60;;
2872;SDS011;1444;49.166;7.312;2023-06-26T13:33:41;16.30;;;5.50;;
2872;SDS011;1444;49.166;7.312;2023-06-26T13:36:09;22.83;;;7.40;;
2872;SDS011;1444;49.166;7.312;2023-06-26T13:38:36;9.37;;;4.93;;
2872;SDS011;1444;49.166;7.312;2023-06-26T13:41:03;17.20;;;9.50;;
2872;SDS011;1444;49.166;7.312;2023-06-26T13:43:29;15.90;;;6.20;;
2872;SDS011;1444;49.166;7.312;2023-06-26T13:45:57;18.13;;;9.20;;
2872;SDS011;1444;49.166;7.312;2023-06-26T13:48:24;15.43;;;7.87;;
2872;SDS011;1444;49.166;7.312;2023-06-26T13:50:52;22.53;;;6.20;;
2872;SDS011;1444;49.166;7.312;2023-06-26T13:53:19;6.97;;;3.33;;
2872;SDS011;1444;49.166;7.312;2023-06-26T13:55:46;7.07;;;4.00;;
2872;SDS011;1444;49.166;7.312;2023-06-26T13:58:13;14.07;;;2.90;;
2872;SDS011;1444;49.166;7.312;2023-06-26T14:00:40;10.60;;;4.67;;
2872;SDS011;1444;49.166;7.312;2023-06-26T14:03:10;16.10;;;5.10;;
2872;SDS011;1444;49.166;7.312;2023-06-26T14:05:37;8.13;;;2.73;;
2872;SDS011;1444;49.166;7.312;2023-06-26T14:08:07;4.27;;;3.70;;
2872;SDS011;1444;49.166;7.312;2023-06-26T14:10:35;5.23;;;3.60;;
2872;SDS011;1444;49.166;7.312;2023-06-26T14:13:03;3.90;;;3.00;;
2872;SDS011;1444;49.166;7.312;2023-06-26T14:15:29;8.97;;;3.70;;
2872;SDS011;1444;49.166;7.312;2023-06-26T14:17:56;11.83;;;5.33;;
2872;SDS011;1444;49.166;7.312;2023-06-26T14:20:24;7.70;;;3.47;;
2872;SDS011;1444;49.166;7.312;2023-06-26T14:22:50;13.93;;;6.13;;
2872;SDS011;1444;49.166;7.312;2023-06-26T14:25:18;13.90;;;6.00;;
2872;SDS011;1444;49.166;7.312;2023-06-26T14:27:45;14.13;;;5.50;;
2872;SDS011;1444;49.166;7.312;2023-06-26T14:30:12;15.37;;;6.93;;
2872;SDS011;1444;49.166;7.312;2023-06-26T14:32:39;9.00;;;4.60;;
2872;SDS011;1444;49.166;7.312;2023-06-26T14:35:06;6.13;;;2.80;;
2872;SDS011;1444;49.166;7.312;2023-06-26T14:37:35;6.03;;;2.90;;
2872;SDS011;1444;49.166;7.312;2023-06-26T14:40:04;7.23;;;2.80;;
2872;SDS011;1444;49.166;7.312;2023-06-26T14:42:33;3.80;;;2.13;;
2872;SDS011;1444;49.166;7.312;2023-06-26T14:45:00;3.13;;;2.40;;
2872;SDS011;1444;49.166;7.312;2023-06-26T14:47:27;5.13;;;2.70;;
2872;SDS011;1444;49.166;7.312;2023-06-26T14:49:54;3.60;;;2.77;;
2872;SDS011;1444;49.166;7.312;2023-06-26T14:52:20;13.37;;;5.90;;
2872;SDS011;1444;49.166;7.312;2023-06-26T14:54:47;5.50;;;3.43;;
2872;SDS011;1444;49.166;7.312;2023-06-26T14:57:14;6.30;;;2.67;;
2872;SDS011;1444;49.166;7.312;2023-06-26T14:59:43;3.20;;;2.50;;